Карточка аэропорта UMKK

Внимание!
Информация на этой странице в стадии наполнения.
Если вы не увидели какой-то информации, или заметили неточность - пожалуйста сообщите нам!
Спасибо!
Команда RU-STAFF
Название аэропортаХраброво
Название аэропорта (англ.)Khrabrovo
Превышение43 ft. (13.1 m.)
Координаты54°53.4', 20°35.55'
Высота перехода4000ft
Эшелон переходаFL50 (QNH>=1013hPa); FL60 (QNH<1013hPa); FL50 (QNH<977hPa);
Коды ответчика6620-6637
Зона ОрВДКалининград РПИ (UMKK)
Данные METARUMKK 262100Z 00000MPS 1900 R24/P2000D -DZ BR OVC002 00/00 Q1020 REFZDZ R24/290095 NOSIG RMK QBB080 OBST OBSC QFE764/1019
Проноз погоды (TAF)UMKK 261957Z 2621/2721 22003MPS 0700 -SN PRFG OVC002 TEMPO 2621/2707 0250 +SN FZRA FZFG OVC001 BECMG 2702/2704 03009G15MPS FM270800 04008G13MPS 8000 FEW005 BKN012 BECMG 2713/2715 05003G08MPS BKN017 TEMPO 2715/2721 BKN003
NOTAMshow/hide NOTAM
AWOS   TABLE

Информация о ВПП

ВПП Длина ВПП (м.) Покрытие Курс ВПП Частота ILS
063350Асфальтобетон60110.3
243350Асфальтобетон240109.5

Диспетчерские позиции

Позывной Наименование органа УВД Частота
UMKK_APPКалининград-Подход126.0
UMKK_TWRКалининград-Вышка127.2



Спутниковое изображение